createdAt,value
2022-08-14T00:00:01.041Z,70.36
2022-08-14T00:01:01.049Z,70.36
2022-08-14T00:02:01.664Z,70.46
2022-08-14T00:03:01.007Z,70.32
2022-08-14T00:04:01.340Z,69.82
2022-08-14T00:05:00.994Z,69.62
2022-08-14T00:06:01.055Z,69.29
2022-08-14T00:07:00.947Z,68.59
2022-08-14T00:08:00.939Z,68.68
2022-08-14T00:09:01.173Z,68.79
2022-08-14T00:10:50.231Z,68.68
2022-08-14T00:11:00.905Z,68.38
2022-08-14T00:12:00.891Z,68.38
2022-08-14T00:13:01.168Z,68.18
2022-08-14T00:14:01.979Z,67.98
2022-08-14T00:15:00.856Z,67.78
2022-08-14T00:16:00.834Z,67.68
2022-08-14T00:17:00.912Z,67.78
2022-08-14T00:18:00.865Z,68.21
2022-08-14T00:19:06.579Z,68.92
2022-08-14T00:20:00.823Z,69.42
2022-08-14T00:21:00.814Z,69.85
2022-08-14T00:22:00.796Z,69.96
2022-08-14T00:23:11.920Z,70.26
2022-08-14T00:24:01.704Z,70.16
2022-08-14T00:25:00.706Z,70.46
2022-08-14T00:26:06.051Z,70.26
2022-08-14T00:27:02.297Z,69.76
2022-08-14T00:28:00.658Z,69.35
2022-08-14T00:29:00.664Z,68.45
2022-08-14T00:30:00.630Z,67.85
2022-08-14T00:31:00.663Z,67.85
2022-08-14T00:32:00.633Z,67.94
2022-08-14T00:33:00.605Z,68.15
2022-08-14T00:34:37.521Z,68.65
2022-08-14T00:35:00.563Z,68.98
2022-08-14T00:36:36.866Z,68.88
2022-08-14T00:37:00.585Z,69.09
2022-08-14T00:38:00.531Z,69.29
2022-08-14T00:39:00.535Z,69.29
2022-08-14T00:40:00.602Z,69.38
2022-08-14T00:41:00.494Z,69.89
2022-08-14T00:42:01.101Z,69.69
2022-08-14T00:43:00.460Z,69.82
2022-08-14T00:44:00.452Z,70.43
2022-08-14T00:45:00.469Z,70.43
2022-08-14T00:46:00.437Z,70.43
2022-08-14T00:47:01.085Z,70.63
2022-08-14T00:48:00.467Z,70.63
2022-08-14T00:49:00.389Z,70.63
2022-08-14T00:50:00.373Z,70.43
2022-08-14T00:51:00.376Z,70.12
2022-08-14T00:52:00.377Z,70.03
2022-08-14T00:53:00.423Z,69.92
2022-08-14T00:54:00.309Z,69.82
2022-08-14T00:55:01.364Z,70.06
2022-08-14T00:56:00.289Z,70.59
2022-08-14T00:57:00.280Z,71.23
2022-08-14T00:58:00.296Z,72.51
2022-08-14T00:59:00.269Z,72.95
2022-08-14T01:00:00.234Z,73.79
2022-08-14T01:01:00.292Z,74.40
2022-08-14T01:02:00.241Z,74.60
2022-08-14T01:03:00.441Z,74.69
2022-08-14T01:04:00.196Z,74.76
2022-08-14T01:05:00.192Z,74.63
2022-08-14T01:06:00.573Z,74.12
2022-08-14T01:07:00.148Z,73.68
2022-08-14T01:08:00.130Z,73.28
2022-08-14T01:09:00.139Z,72.94
2022-08-14T01:10:00.122Z,72.54
2022-08-14T01:11:00.083Z,72.44
2022-08-14T01:12:02.744Z,72.24
2022-08-14T01:13:00.083Z,71.73
2022-08-14T01:14:00.982Z,71.53
2022-08-14T01:15:00.060Z,71.53
2022-08-14T01:16:02.608Z,71.33
2022-08-14T01:17:00.097Z,71.73
2022-08-14T01:18:00.016Z,72.07
2022-08-14T01:19:02.283Z,72.17
2022-08-14T01:19:59.980Z,72.17
2022-08-14T01:20:59.960Z,72.27
2022-08-14T01:21:59.934Z,72.38
2022-08-14T01:22:59.969Z,72.04
2022-08-14T01:23:59.920Z,71.94
2022-08-14T01:24:59.905Z,71.73
2022-08-14T01:25:59.875Z,71.94
2022-08-14T01:27:00.560Z,71.73
2022-08-14T01:27:59.875Z,71.13
2022-08-14T01:28:59.863Z,71.13
2022-08-14T01:30:04.138Z,70.93
2022-08-14T01:30:59.866Z,71.57
2022-08-14T01:31:59.798Z,71.70
2022-08-14T01:32:59.785Z,72.75
2022-08-14T01:35:17.634Z,73.72
2022-08-14T01:36:04.747Z,74.87
2022-08-14T01:36:22.786Z,75.78
2022-08-14T01:36:59.745Z,76.48
2022-08-14T01:37:59.849Z,76.65
2022-08-14T01:38:59.720Z,76.45
2022-08-14T01:39:59.730Z,76.04
2022-08-14T01:40:59.684Z,75.81
2022-08-14T01:41:59.661Z,75.51
2022-08-14T01:42:59.687Z,75.71
2022-08-14T01:43:59.655Z,76.21
2022-08-14T01:44:59.620Z,76.31
2022-08-14T01:46:06.775Z,76.42
2022-08-14T01:47:01.132Z,76.28
2022-08-14T01:48:03.038Z,75.98
2022-08-14T01:48:59.594Z,75.47
2022-08-14T01:50:01.848Z,75.47
2022-08-14T01:50:59.550Z,76.11
2022-08-14T01:51:59.536Z,76.21
2022-08-14T01:53:01.240Z,76.31
2022-08-14T01:53:59.517Z,75.98
2022-08-14T01:54:59.483Z,75.57
2022-08-14T01:55:59.470Z,75.77
2022-08-14T01:56:59.472Z,76.31
2022-08-14T01:58:18.164Z,76.51
2022-08-14T01:58:59.476Z,76.42
2022-08-14T01:59:59.433Z,76.42
2022-08-14T02:00:59.455Z,75.98
2022-08-14T02:01:59.589Z,75.67
2022-08-14T02:02:59.383Z,75.57
2022-08-14T02:03:59.393Z,75.54
2022-08-14T02:04:59.353Z,75.13
2022-08-14T02:05:59.348Z,74.93
2022-08-14T02:06:59.367Z,74.73
2022-08-14T02:08:08.903Z,75.23
2022-08-14T02:08:59.306Z,75.77
2022-08-14T02:09:59.301Z,76.62
2022-08-14T02:10:59.272Z,77.26
2022-08-14T02:11:59.286Z,77.86
2022-08-14T02:12:59.633Z,78.71
2022-08-14T02:13:59.227Z,79.25
2022-08-14T02:15:01.364Z,79.66
2022-08-14T02:15:59.229Z,80.16
2022-08-14T02:16:59.250Z,80.50
2022-08-14T02:17:59.192Z,80.80
2022-08-14T02:18:59.168Z,81.21
2022-08-14T02:19:59.167Z,81.41
2022-08-14T02:20:59.171Z,81.31
2022-08-14T02:22:03.143Z,81.07
2022-08-14T02:22:59.133Z,80.57
2022-08-14T02:23:59.104Z,80.36
2022-08-14T02:24:59.087Z,80.46
2022-08-14T02:25:59.062Z,80.46
2022-08-14T02:28:25.438Z,80.26
2022-08-14T02:29:03.383Z,80.26
2022-08-14T02:29:08.560Z,80.16
2022-08-14T02:30:08.496Z,80.26
2022-08-14T02:31:08.841Z,80.36
2022-08-14T02:32:08.467Z,80.57
2022-08-14T02:33:08.473Z,80.66
2022-08-14T02:34:14.756Z,80.66
2022-08-14T02:35:08.443Z,80.60
2022-08-14T02:37:03.422Z,80.36
2022-08-14T02:37:10.569Z,80.16
2022-08-14T02:38:11.493Z,79.75
2022-08-14T02:39:08.403Z,79.41
2022-08-14T02:40:08.387Z,79.21
2022-08-14T02:41:08.984Z,79.32
2022-08-14T02:42:13.294Z,78.81
2022-08-14T02:43:08.554Z,78.81
2022-08-14T02:44:08.310Z,78.95
2022-08-14T02:45:08.301Z,79.46
2022-08-14T02:46:08.304Z,79.75
2022-08-14T02:47:15.154Z,79.90
2022-08-14T02:48:10.176Z,79.90
2022-08-14T02:49:08.251Z,79.90
2022-08-14T02:50:08.278Z,79.69
2022-08-14T02:51:09.162Z,79.59
2022-08-14T02:52:26.653Z,79.35
2022-08-14T02:53:08.700Z,79.05
2022-08-14T02:54:08.217Z,78.41
2022-08-14T02:55:08.169Z,77.60
2022-08-14T02:56:29.479Z,76.55
2022-08-14T02:57:39.297Z,76.04
2022-08-14T02:58:08.143Z,75.51
2022-08-14T02:59:08.144Z,75.10
2022-08-14T03:00:10.238Z,75.00
2022-08-14T03:01:08.129Z,74.69
2022-08-14T03:02:08.110Z,74.69
2022-08-14T03:03:08.323Z,74.80
2022-08-14T03:04:08.072Z,74.49
2022-08-14T03:05:08.031Z,74.29
2022-08-14T03:06:08.932Z,74.29
2022-08-14T03:07:08.392Z,73.79
2022-08-14T03:08:08.075Z,73.85
2022-08-14T03:09:08.005Z,73.65
2022-08-14T03:10:28.209Z,73.35
2022-08-14T03:11:08.351Z,73.55
2022-08-14T03:12:07.959Z,73.99
2022-08-14T03:13:13.668Z,74.43
2022-08-14T03:14:07.922Z,74.53
2022-08-14T03:15:07.922Z,74.87
2022-08-14T03:16:09.262Z,75.17
2022-08-14T03:17:07.908Z,75.27
2022-08-14T03:18:07.870Z,75.27
2022-08-14T03:19:07.842Z,75.41
2022-08-14T03:20:11.059Z,75.61
2022-08-14T03:21:08.067Z,76.12
2022-08-14T03:22:09.371Z,76.12
2022-08-14T03:23:07.828Z,76.02
2022-08-14T03:24:07.775Z,76.02
2022-08-14T03:25:07.784Z,76.02
2022-08-14T03:26:07.784Z,76.02
2022-08-14T03:27:07.784Z,75.37
2022-08-14T03:28:07.722Z,75.57
2022-08-14T03:29:07.720Z,75.27
2022-08-14T03:30:14.465Z,75.17
2022-08-14T03:31:08.215Z,74.97
2022-08-14T03:32:07.682Z,74.66
2022-08-14T03:33:07.668Z,74.33
2022-08-14T03:34:10.080Z,74.63
2022-08-14T03:35:08.845Z,74.02
2022-08-14T03:37:28.479Z,74.02
2022-08-14T03:39:10.585Z,74.22
2022-08-14T03:39:21.991Z,74.13
2022-08-14T03:39:28.352Z,73.93
2022-08-14T03:40:27.880Z,73.32
2022-08-14T03:41:27.877Z,72.81
2022-08-14T03:42:31.194Z,72.48
2022-08-14T03:43:28.427Z,72.17
2022-08-14T03:45:19.031Z,72.17
2022-08-14T03:45:38.719Z,72.58
2022-08-14T03:46:38.774Z,72.91
2022-08-14T03:47:46.111Z,73.32
2022-08-14T03:48:31.112Z,73.96
2022-08-14T03:49:29.198Z,74.60
2022-08-14T03:50:30.840Z,74.90
2022-08-14T03:51:27.729Z,75.01
2022-08-14T03:52:38.413Z,75.21
2022-08-14T03:53:27.676Z,75.55
2022-08-14T03:54:27.711Z,75.65
2022-08-14T03:55:27.647Z,75.75
2022-08-14T03:56:27.834Z,75.45
2022-08-14T03:57:27.654Z,75.24
2022-08-14T03:58:35.120Z,75.04
2022-08-14T03:59:28.514Z,75.28
2022-08-14T04:00:43.703Z,75.89
2022-08-14T04:01:29.410Z,76.73
2022-08-14T04:02:33.019Z,77.24
2022-08-14T04:03:27.580Z,77.24
2022-08-14T04:04:27.534Z,77.24
2022-08-14T04:05:27.559Z,77.34
2022-08-14T04:06:28.466Z,77.54
2022-08-14T04:07:27.490Z,77.54
2022-08-14T04:08:31.018Z,77.64
2022-08-14T04:09:27.495Z,77.64
2022-08-14T04:10:32.229Z,77.54
2022-08-14T04:11:27.467Z,77.54
2022-08-14T04:12:27.431Z,77.44
2022-08-14T04:13:27.887Z,77.44
2022-08-14T04:14:27.418Z,77.20
2022-08-14T04:15:27.382Z,77.20
2022-08-14T04:16:31.412Z,77.20
2022-08-14T04:17:27.355Z,77.30
2022-08-14T04:18:27.347Z,77.10
2022-08-14T04:19:28.060Z,76.90
2022-08-14T04:20:27.353Z,76.76
2022-08-14T04:21:27.323Z,76.56
2022-08-14T04:22:27.301Z,76.15
2022-08-14T04:23:29.419Z,76.02
2022-08-14T04:24:27.292Z,75.81
2022-08-14T04:25:27.246Z,75.71
2022-08-14T04:26:42.239Z,75.92
2022-08-14T04:27:27.226Z,76.02
2022-08-14T04:29:08.248Z,75.71
2022-08-14T04:29:27.205Z,75.61
2022-08-14T04:30:32.799Z,75.71
2022-08-14T04:32:57.682Z,75.71
2022-08-14T04:33:20.649Z,75.81
2022-08-14T04:33:27.624Z,76.02
2022-08-14T04:34:28.229Z,75.92
2022-08-14T04:35:27.697Z,75.92
2022-08-14T04:36:27.141Z,75.71
2022-08-14T04:37:27.091Z,75.57
2022-08-14T04:38:37.320Z,76.39
2022-08-14T04:39:27.173Z,76.48
2022-08-14T04:40:27.820Z,76.48
2022-08-14T04:41:30.312Z,76.69
2022-08-14T04:42:27.029Z,76.39
2022-08-14T04:43:39.175Z,76.08
2022-08-14T04:44:36.709Z,76.28
2022-08-14T04:45:29.611Z,75.68
2022-08-14T04:46:56.697Z,75.64
2022-08-14T04:47:26.957Z,75.64
2022-08-14T04:48:38.962Z,75.54
2022-08-14T04:49:27.041Z,75.54
2022-08-14T04:50:43.446Z,75.34
2022-08-14T04:51:26.915Z,75.20
2022-08-14T04:52:26.894Z,75.00
2022-08-14T04:53:35.285Z,75.31
2022-08-14T04:54:27.006Z,75.40
2022-08-14T04:55:27.817Z,75.20
2022-08-14T04:56:34.262Z,75.31
2022-08-14T04:57:26.830Z,75.31
2022-08-14T04:58:32.230Z,74.90
2022-08-14T04:59:26.826Z,74.80
2022-08-14T05:00:26.807Z,74.66
2022-08-14T05:01:26.827Z,74.69
2022-08-14T05:02:26.838Z,74.80
2022-08-14T05:03:26.770Z,75.10
2022-08-14T05:04:26.735Z,75.34
2022-08-14T05:05:26.734Z,75.44
2022-08-14T05:06:34.924Z,75.74
2022-08-14T05:07:46.595Z,76.18
2022-08-14T05:08:31.762Z,76.59
2022-08-14T05:09:28.962Z,76.89
2022-08-14T05:10:32.192Z,77.13
2022-08-14T05:11:26.691Z,77.33
2022-08-14T05:13:13.212Z,77.64
2022-08-14T05:13:30.038Z,77.73
2022-08-14T05:14:46.729Z,77.73
2022-08-14T05:15:26.597Z,77.73
2022-08-14T05:16:26.587Z,77.53
2022-08-14T05:17:31.928Z,77.64
2022-08-14T05:19:17.207Z,77.60
2022-08-14T05:19:29.359Z,77.60
2022-08-14T05:21:54.284Z,77.84
2022-08-14T05:22:17.034Z,78.24
2022-08-14T05:22:27.150Z,78.64
2022-08-14T05:23:26.484Z,79.08
2022-08-14T05:24:26.492Z,79.39
2022-08-14T05:25:30.796Z,79.83
2022-08-14T05:26:26.456Z,80.34
2022-08-14T05:27:26.472Z,80.64
2022-08-14T05:28:26.424Z,80.84
2022-08-14T05:29:26.389Z,80.94
2022-08-14T05:30:26.415Z,81.15
2022-08-14T05:31:39.338Z,81.35
2022-08-14T05:32:27.775Z,81.25
2022-08-14T05:33:26.344Z,81.15
2022-08-14T05:34:28.752Z,81.01
2022-08-14T05:35:26.323Z,80.60
2022-08-14T05:36:27.147Z,80.36
2022-08-14T05:37:26.391Z,79.96
2022-08-14T05:38:31.824Z,79.72
2022-08-14T05:39:26.330Z,79.41
2022-08-14T05:40:26.263Z,79.08
2022-08-14T05:41:31.982Z,78.88
2022-08-14T05:42:29.328Z,78.74
2022-08-14T05:43:26.241Z,78.43
2022-08-14T05:44:29.926Z,77.79
2022-08-14T05:45:26.195Z,77.49
2022-08-14T05:46:26.176Z,77.19
2022-08-14T05:47:29.170Z,77.04
2022-08-14T05:48:33.804Z,76.64
2022-08-14T05:49:33.684Z,76.75
2022-08-14T05:50:26.126Z,76.81
2022-08-14T05:51:26.111Z,77.11
2022-08-14T05:52:38.337Z,77.21
2022-08-14T05:53:26.116Z,77.51
2022-08-14T05:54:27.104Z,77.21
2022-08-14T05:55:26.072Z,77.21
2022-08-14T05:56:26.082Z,77.31
2022-08-14T05:57:26.029Z,77.31
2022-08-14T05:58:40.985Z,77.51
2022-08-14T05:59:36.565Z,77.28
2022-08-14T06:00:29.973Z,77.38
2022-08-14T06:01:26.030Z,77.58
2022-08-14T06:02:26.017Z,77.14
2022-08-14T06:03:25.972Z,76.43
2022-08-14T06:04:25.945Z,75.63
2022-08-14T06:05:28.817Z,75.93
2022-08-14T06:06:26.157Z,76.23
2022-08-14T06:07:25.889Z,76.20
2022-08-14T06:08:35.401Z,75.49
2022-08-14T06:09:25.890Z,75.09
2022-08-14T06:10:25.854Z,74.65
2022-08-14T06:11:30.671Z,73.85
2022-08-14T06:12:55.119Z,72.84
2022-08-14T06:13:31.579Z,73.04
2022-08-14T06:14:25.805Z,73.24
2022-08-14T06:15:29.648Z,71.60
2022-08-14T06:16:25.781Z,71.40
2022-08-14T06:17:26.357Z,71.90
2022-08-14T06:18:25.749Z,71.90
2022-08-14T06:19:25.748Z,71.87
2022-08-14T06:20:25.735Z,71.16
2022-08-14T06:21:26.040Z,69.65
2022-08-14T06:22:25.684Z,70.26
2022-08-14T06:23:25.666Z,70.53
2022-08-14T06:24:26.109Z,68.92
2022-08-14T06:25:26.048Z,68.72
2022-08-14T06:26:30.459Z,68.62
2022-08-14T06:27:25.630Z,66.67
2022-08-14T06:28:28.083Z,66.17
2022-08-14T06:29:25.633Z,66.47
2022-08-14T06:30:30.299Z,65.27
2022-08-14T06:31:25.613Z,65.47
2022-08-14T06:32:37.503Z,64.84
2022-08-14T06:33:30.081Z,65.24
2022-08-14T06:35:13.559Z,65.74
2022-08-14T06:35:25.546Z,65.64
2022-08-14T06:36:25.509Z,63.93
2022-08-14T06:37:25.490Z,63.73
2022-08-14T06:38:25.482Z,63.60
2022-08-14T06:39:36.573Z,63.50
2022-08-14T06:40:28.430Z,63.50
2022-08-14T06:41:57.664Z,63.10
2022-08-14T06:42:32.982Z,64.01
2022-08-14T06:43:30.174Z,63.81
2022-08-14T06:44:32.307Z,63.47
2022-08-14T06:45:26.407Z,63.98
2022-08-14T06:46:34.167Z,63.37
2022-08-14T06:47:25.366Z,63.17
2022-08-14T06:48:25.374Z,62.97
2022-08-14T06:49:25.342Z,62.97
2022-08-14T06:50:27.791Z,62.84
2022-08-14T06:51:25.304Z,63.14
2022-08-14T06:52:25.281Z,62.74
2022-08-14T06:53:27.598Z,62.04
2022-08-14T06:54:31.115Z,62.14
2022-08-14T06:55:28.116Z,62.14
2022-08-14T06:56:25.242Z,62.92
2022-08-14T06:57:25.220Z,63.21
2022-08-14T06:58:29.163Z,62.71
2022-08-14T06:59:25.226Z,62.51
2022-08-14T07:00:27.449Z,62.61
2022-08-14T07:01:27.447Z,63.01
2022-08-14T07:02:25.258Z,62.51
2022-08-14T07:03:25.153Z,62.81
2022-08-14T07:04:25.157Z,62.61
2022-08-14T07:05:25.134Z,62.58
2022-08-14T07:06:45.411Z,62.58
2022-08-14T07:07:25.126Z,62.78
2022-08-14T07:08:25.793Z,63.18
2022-08-14T07:09:25.053Z,62.45
2022-08-14T07:10:25.462Z,63.06
2022-08-14T07:11:25.065Z,62.75
2022-08-14T07:12:54.077Z,62.55
2022-08-14T07:13:25.008Z,62.75
2022-08-14T07:14:24.994Z,62.95
2022-08-14T07:15:24.989Z,63.56
2022-08-14T07:16:27.344Z,63.45
2022-08-14T07:17:24.983Z,61.12
2022-08-14T07:18:24.955Z,61.22
2022-08-14T07:19:24.980Z,60.82
2022-08-14T07:20:31.309Z,61.99
2022-08-14T07:21:24.916Z,62.09
2022-08-14T07:22:24.930Z,61.29
2022-08-14T07:23:25.036Z,60.99
2022-08-14T07:24:31.021Z,61.09
2022-08-14T07:25:32.362Z,60.89
2022-08-14T07:26:25.034Z,61.07
2022-08-14T07:27:24.821Z,61.36
2022-08-14T07:28:24.843Z,60.96
2022-08-14T07:29:28.732Z,60.83
2022-08-14T07:30:33.866Z,60.63
2022-08-14T07:31:24.812Z,60.91
2022-08-14T07:32:34.028Z,59.70
2022-08-14T07:33:29.454Z,58.91
2022-08-14T07:34:36.495Z,59.61
2022-08-14T07:35:24.741Z,59.70
2022-08-14T07:36:27.416Z,59.08
2022-08-14T07:37:24.755Z,58.18
2022-08-14T07:38:24.679Z,58.68
2022-08-14T07:39:27.743Z,58.36
2022-08-14T07:40:27.659Z,58.45
2022-08-14T07:41:24.696Z,58.85
2022-08-14T07:42:24.671Z,59.05
2022-08-14T07:43:24.638Z,58.62
2022-08-14T07:44:32.419Z,58.83
2022-08-14T07:45:24.592Z,57.53
2022-08-14T07:46:29.594Z,57.10
2022-08-14T07:47:24.583Z,57.30
2022-08-14T07:48:25.310Z,57.40
2022-08-14T07:49:24.580Z,57.80
2022-08-14T07:50:24.515Z,57.00
2022-08-14T07:51:24.531Z,56.48
2022-08-14T07:52:30.578Z,56.38
2022-08-14T07:53:24.529Z,56.27
2022-08-14T07:54:30.487Z,56.87
2022-08-14T07:55:24.445Z,56.27
2022-08-14T07:56:47.993Z,56.77
2022-08-14T07:57:24.944Z,56.25
2022-08-14T07:58:31.617Z,56.35
2022-08-14T07:59:40.539Z,55.85
2022-08-14T08:00:31.051Z,55.73
2022-08-14T08:01:24.394Z,55.63
2022-08-14T08:02:24.375Z,54.73
2022-08-14T08:03:24.388Z,55.33
2022-08-14T08:04:25.249Z,55.00
2022-08-14T08:05:24.336Z,54.01
2022-08-14T08:06:24.310Z,53.98
2022-08-14T08:07:24.306Z,52.86
2022-08-14T08:08:26.474Z,53.16
2022-08-14T08:09:24.268Z,53.56
2022-08-14T08:10:46.160Z,54.16
2022-08-14T08:11:24.238Z,54.46
2022-08-14T08:12:30.216Z,54.03
2022-08-14T08:13:24.674Z,53.83
2022-08-14T08:14:24.225Z,54.33
2022-08-14T08:15:24.196Z,54.43
2022-08-14T08:16:24.258Z,51.95
2022-08-14T08:17:24.382Z,52.64
2022-08-14T08:18:27.463Z,54.03
2022-08-14T08:19:24.161Z,53.01
2022-08-14T08:20:24.146Z,53.80
2022-08-14T08:21:27.138Z,53.48
2022-08-14T08:22:27.442Z,53.28
2022-08-14T08:23:31.044Z,52.09
2022-08-14T08:24:24.077Z,50.40
2022-08-14T08:25:24.088Z,50.81
2022-08-14T08:26:24.113Z,48.99
2022-08-14T08:27:24.070Z,47.61
2022-08-14T08:28:26.410Z,48.60
2022-08-14T08:29:28.649Z,48.90
2022-08-14T08:30:24.014Z,49.19
2022-08-14T08:31:24.022Z,49.79
2022-08-14T08:32:30.031Z,50.58
2022-08-14T08:33:23.985Z,50.68
2022-08-14T08:34:24.348Z,50.95
2022-08-14T08:35:23.960Z,49.76
2022-08-14T08:36:23.925Z,49.46
2022-08-14T08:37:25.359Z,47.49
2022-08-14T08:39:18.147Z,46.86
2022-08-14T08:39:42.207Z,46.67
2022-08-14T08:40:24.010Z,46.86
2022-08-14T08:41:23.862Z,46.57
2022-08-14T08:42:31.167Z,45.18
2022-08-14T08:43:23.853Z,45.36
2022-08-14T08:44:31.804Z,45.56
2022-08-14T08:45:23.831Z,45.06
2022-08-14T08:46:24.286Z,45.34
2022-08-14T08:47:23.825Z,45.23
2022-08-14T08:48:31.201Z,45.73
2022-08-14T08:49:23.770Z,46.11
2022-08-14T08:50:31.847Z,46.38
2022-08-14T08:51:22.712Z,45.29
2022-08-14T08:52:25.054Z,46.38
2022-08-14T08:53:23.734Z,46.58
2022-08-14T08:54:26.672Z,44.80
2022-08-14T08:55:23.675Z,45.19
2022-08-14T08:56:30.197Z,46.48
2022-08-14T08:57:24.050Z,46.18
2022-08-14T08:58:24.902Z,46.38
2022-08-14T08:59:30.745Z,45.98
2022-08-14T09:00:25.522Z,46.38
2022-08-14T09:01:23.716Z,46.67
2022-08-14T09:02:26.178Z,46.16
2022-08-14T09:03:23.581Z,45.37
2022-08-14T09:04:23.581Z,44.58
2022-08-14T09:05:23.556Z,44.48
2022-08-14T09:07:00.051Z,44.58
2022-08-14T09:07:23.570Z,44.75
2022-08-14T09:08:30.874Z,44.56
2022-08-14T09:09:23.528Z,44.56
2022-08-14T09:10:23.499Z,44.56
2022-08-14T09:11:23.481Z,44.36
2022-08-14T09:12:23.475Z,43.66
2022-08-14T09:13:23.466Z,43.77
2022-08-14T09:14:23.459Z,43.45
2022-08-14T09:15:24.242Z,43.25
2022-08-14T09:16:25.066Z,43.43
2022-08-14T09:17:25.947Z,41.83
2022-08-14T09:18:23.383Z,42.32
2022-08-14T09:19:23.360Z,42.79
2022-08-14T09:20:26.472Z,42.79
2022-08-14T09:21:24.439Z,42.68
2022-08-14T09:22:35.159Z,43.37
2022-08-14T09:23:34.681Z,42.26
2022-08-14T09:24:29.689Z,41.67
2022-08-14T09:25:58.596Z,41.38
2022-08-14T09:26:23.277Z,41.86
2022-08-14T09:27:23.466Z,41.69
2022-08-14T09:28:24.219Z,41.69
2022-08-14T09:29:23.743Z,41.69
2022-08-14T09:30:30.918Z,42.47
2022-08-14T09:31:23.239Z,42.07
2022-08-14T09:32:58.725Z,41.96
2022-08-14T09:33:23.305Z,42.16
2022-08-14T09:34:28.230Z,40.69
2022-08-14T09:35:23.186Z,39.89
2022-08-14T09:36:23.172Z,40.88
2022-08-14T09:37:23.151Z,40.88
2022-08-14T09:38:25.914Z,39.58
2022-08-14T09:39:23.802Z,36.72
2022-08-14T09:40:23.309Z,37.40
2022-08-14T09:41:23.103Z,37.10
2022-08-14T09:42:33.401Z,37.59
2022-08-14T09:43:23.080Z,37.57
2022-08-14T09:44:23.116Z,38.54
2022-08-14T09:45:23.115Z,40.01
2022-08-14T09:46:25.750Z,38.44
2022-08-14T09:47:23.021Z,38.54
2022-08-14T09:48:29.847Z,37.95
2022-08-14T09:49:23.000Z,38.13
2022-08-14T09:50:25.738Z,37.84
2022-08-14T09:51:22.984Z,36.93
2022-08-14T09:52:33.469Z,37.34
2022-08-14T09:53:22.918Z,38.03
2022-08-14T09:54:23.891Z,37.74
2022-08-14T09:55:22.908Z,37.82
2022-08-14T09:56:30.090Z,36.93
2022-08-14T09:57:22.875Z,37.32
2022-08-14T09:58:24.669Z,36.42
2022-08-14T09:59:22.834Z,34.85
2022-08-14T10:00:28.290Z,34.46
2022-08-14T10:01:22.833Z,34.58
2022-08-14T10:02:22.892Z,34.28
2022-08-14T10:03:22.792Z,33.70
2022-08-14T10:04:34.681Z,33.70
2022-08-14T10:05:22.774Z,34.78
2022-08-14T10:06:22.745Z,35.36
2022-08-14T10:07:22.773Z,34.16
2022-08-14T10:08:26.313Z,33.75
2022-08-14T10:09:22.747Z,32.09
2022-08-14T10:10:23.475Z,31.87
2022-08-14T10:11:23.492Z,32.07
2022-08-14T10:12:28.801Z,30.88
2022-08-14T10:13:23.672Z,30.37
2022-08-14T10:14:29.317Z,29.68
2022-08-14T10:15:22.627Z,29.28
2022-08-14T10:16:27.192Z,29.10
2022-08-14T10:17:22.642Z,29.59
2022-08-14T10:18:22.629Z,29.39
2022-08-14T10:19:22.588Z,28.82
2022-08-14T10:20:40.846Z,29.00
2022-08-14T10:21:22.653Z,29.69
2022-08-14T10:23:11.982Z,30.16
2022-08-14T10:23:23.063Z,30.07
2022-08-14T10:24:23.404Z,30.35
2022-08-14T10:25:22.772Z,30.35
2022-08-14T10:26:28.447Z,30.15
2022-08-14T10:27:22.487Z,31.03
2022-08-14T10:28:57.448Z,30.93
2022-08-14T10:29:23.884Z,31.32
2022-08-14T10:30:25.452Z,31.44
2022-08-14T10:31:25.660Z,30.65
2022-08-14T10:32:28.726Z,30.16
2022-08-14T10:33:22.439Z,30.46
2022-08-14T10:34:29.103Z,31.14
2022-08-14T10:35:23.165Z,31.63
2022-08-14T10:36:34.895Z,31.55
2022-08-14T10:37:23.150Z,32.04
2022-08-14T10:38:22.350Z,30.94
2022-08-14T10:39:22.437Z,30.16
2022-08-14T10:40:44.290Z,29.87
2022-08-14T10:41:22.319Z,30.55
2022-08-14T10:42:22.340Z,29.18
2022-08-14T10:43:23.010Z,30.46
2022-08-14T10:44:22.277Z,30.54
2022-08-14T10:45:22.242Z,29.85
2022-08-14T10:47:37.086Z,30.25
2022-08-14T10:48:23.616Z,30.05
2022-08-14T10:48:42.163Z,29.85
2022-08-14T10:49:22.202Z,29.27
2022-08-14T10:50:22.184Z,30.35
2022-08-14T10:51:22.200Z,29.75
2022-08-14T10:52:22.193Z,29.66
2022-08-14T10:53:22.139Z,30.35
2022-08-14T10:54:37.266Z,29.17
2022-08-14T10:55:22.114Z,30.15
2022-08-14T10:56:34.230Z,30.15
2022-08-14T10:57:22.117Z,30.54
2022-08-14T10:58:22.091Z,30.64
2022-08-14T10:59:22.132Z,30.23
2022-08-14T11:00:30.166Z,29.64
2022-08-14T11:01:22.071Z,30.43
2022-08-14T11:02:35.946Z,30.43
2022-08-14T11:03:26.435Z,30.13
2022-08-14T11:04:25.822Z,29.95
2022-08-14T11:05:21.992Z,30.07
2022-08-14T11:06:22.060Z,30.57
2022-08-14T11:07:21.995Z,30.77
2022-08-14T11:08:21.963Z,31.14
2022-08-14T11:09:22.416Z,30.65
2022-08-14T11:10:21.922Z,30.64
2022-08-14T11:11:21.934Z,29.56
2022-08-14T11:12:33.914Z,28.57
2022-08-14T11:13:24.028Z,28.38
2022-08-14T11:14:22.985Z,28.38
2022-08-14T11:15:21.848Z,27.91
2022-08-14T11:16:21.839Z,29.10
2022-08-14T11:17:21.912Z,28.81
2022-08-14T11:18:35.795Z,29.18
2022-08-14T11:19:24.261Z,29.77
2022-08-14T11:20:24.004Z,28.58
2022-08-14T11:21:21.818Z,29.66
2022-08-14T11:22:55.785Z,28.49
2022-08-14T11:23:21.789Z,28.68
2022-08-14T11:24:50.740Z,28.97
2022-08-14T11:25:21.770Z,27.59
2022-08-14T11:26:21.879Z,28.47
2022-08-14T11:27:25.776Z,28.28
2022-08-14T11:28:21.733Z,28.49
2022-08-14T11:29:21.711Z,28.01
2022-08-14T11:30:50.161Z,29.18
2022-08-14T11:31:22.165Z,27.72
2022-08-14T11:32:21.680Z,27.62
2022-08-14T11:33:21.679Z,27.42
2022-08-14T11:34:31.851Z,27.12
2022-08-14T11:35:21.624Z,27.23
2022-08-14T11:36:21.618Z,27.33
2022-08-14T11:37:36.366Z,27.50
2022-08-14T11:38:21.755Z,27.80
2022-08-14T11:39:33.769Z,27.50
2022-08-14T11:40:24.248Z,27.31
2022-08-14T11:41:21.582Z,27.59
2022-08-14T11:42:56.511Z,27.98
2022-08-14T11:43:29.179Z,26.42
2022-08-14T11:44:46.712Z,27.10
2022-08-14T11:45:23.284Z,26.89
2022-08-14T11:46:30.371Z,26.60
2022-08-14T11:47:21.457Z,26.50
2022-08-14T11:49:02.800Z,26.31
2022-08-14T11:49:21.949Z,26.50
2022-08-14T11:50:33.488Z,26.01
2022-08-14T11:51:24.007Z,26.60
2022-08-14T11:52:21.728Z,27.09
2022-08-14T11:53:21.390Z,26.50
2022-08-14T11:54:34.430Z,25.63
2022-08-14T11:55:25.574Z,25.84
2022-08-14T11:56:25.274Z,26.82
2022-08-14T11:57:22.916Z,26.51
2022-08-14T11:58:24.266Z,26.32
2022-08-14T11:59:26.257Z,27.69
2022-08-14T12:00:21.287Z,27.29
2022-08-14T12:01:21.323Z,26.11
2022-08-14T12:03:00.661Z,26.99
2022-08-14T12:03:37.869Z,27.28
2022-08-14T12:04:21.727Z,25.72
2022-08-14T12:05:21.329Z,26.79
2022-08-14T12:06:29.044Z,26.89
2022-08-14T12:07:21.211Z,26.70
2022-08-14T12:08:24.600Z,26.20
2022-08-14T12:09:21.199Z,27.17
2022-08-14T12:10:26.164Z,26.68
2022-08-14T12:11:21.154Z,26.49
2022-08-14T12:12:35.963Z,26.29
2022-08-14T12:13:22.259Z,26.29
2022-08-14T12:14:30.277Z,26.00
2022-08-14T12:15:21.122Z,25.51
2022-08-14T12:16:21.092Z,25.81
2022-08-14T12:17:23.449Z,25.22
2022-08-14T12:18:21.052Z,25.81
2022-08-14T12:19:21.101Z,25.33
2022-08-14T12:20:30.000Z,26.31
2022-08-14T12:21:21.022Z,26.81
2022-08-14T12:22:29.468Z,26.01
2022-08-14T12:23:21.013Z,25.92
2022-08-14T12:24:35.776Z,26.31
2022-08-14T12:25:20.991Z,26.79
2022-08-14T12:26:39.845Z,25.23
2022-08-14T12:27:25.034Z,25.43
2022-08-14T12:28:27.060Z,25.13
2022-08-14T12:29:20.936Z,25.13
2022-08-14T12:30:21.295Z,26.39
2022-08-14T12:31:20.946Z,26.49
2022-08-14T12:32:20.871Z,26.21
2022-08-14T12:33:20.881Z,25.82
2022-08-14T12:34:22.828Z,26.22
2022-08-14T12:35:20.905Z,26.42
2022-08-14T12:36:20.978Z,26.82
2022-08-14T12:37:20.810Z,26.12
2022-08-14T12:38:21.287Z,27.00
2022-08-14T12:39:20.900Z,26.71
2022-08-14T12:40:21.128Z,26.32
2022-08-14T12:41:21.841Z,26.60
2022-08-14T12:42:27.114Z,26.60
2022-08-14T12:43:21.477Z,26.01
2022-08-14T12:44:20.770Z,23.57
2022-08-14T12:45:20.750Z,23.37
2022-08-14T12:46:26.624Z,23.37
2022-08-14T12:47:20.740Z,23.66
2022-08-14T12:48:31.342Z,23.94
2022-08-14T12:49:20.707Z,23.94
2022-08-14T12:50:20.670Z,23.36
2022-08-14T12:51:21.602Z,24.13
2022-08-14T12:52:20.651Z,24.13